TAF KPRB
KPRB 280541Z 2806/2906 13004KT P6SM SKC FM280800 VRB03KT P6SM SKC FM282200 19006KT P6SM SKC FM290500 VRB03KT P6SM SKC=
METAR KPRB
WC KPRB
WS KPRB
WV KPRB